Time;durP1;ratioP1;P1;durP2;ratioP2;P2;SDS_P1;SDS_P2;PMS_P1;PMS_P2;Temp;Humidity;BMP_temperature;BMP_pressure;BME280_temperature;BME280_humidity;BME280_pressure;Samples;Min_cycle;Max_cycle;Signal;HPM_P1;HPM_P2
2022/07/01 00:01:49;;;;;;;5.30;3.20;;;;;;;13.82;84.88;101427.88;5094460;28;20021;-81
2022/07/01 00:04:15;;;;;;;5.00;3.63;;;;;;;13.75;83.73;101444.56;5095150;28;20024;-81
2022/07/01 00:06:43;;;;;;;4.30;3.30;;;;;;;13.70;83.87;101442.03;5094994;28;20085;-81
2022/07/01 00:09:08;;;;;;;3.30;2.78;;;;;;;13.69;85.16;101440.31;5094786;28;20082;-81
2022/07/01 00:11:34;;;;;;;4.30;3.03;;;;;;;13.65;83.36;101437.78;5095306;28;20016;-81
2022/07/01 00:13:59;;;;;;;3.53;3.03;;;;;;;13.60;82.94;101432.66;5095166;28;20028;-81
2022/07/01 00:16:24;;;;;;;3.63;2.97;;;;;;;13.58;83.53;101424.00;5094891;28;20468;-81
2022/07/01 00:18:49;;;;;;;3.30;2.90;;;;;;;13.56;83.09;101424.06;5094962;28;20032;-81
2022/07/01 00:21:15;;;;;;;3.07;2.60;;;;;;;13.55;83.20;101429.28;5095294;28;20024;-81
2022/07/01 00:23:41;;;;;;;2.63;2.40;;;;;;;13.55;83.38;101426.66;5094197;28;20452;-81
2022/07/01 00:26:06;;;;;;;2.10;1.90;;;;;;;13.53;83.14;101420.59;5093830;28;20084;-81
2022/07/01 00:28:32;;;;;;;3.97;2.80;;;;;;;13.47;84.43;101425.94;5095012;28;20040;-81
2022/07/01 00:30:57;;;;;;;3.00;2.57;;;;;;;13.42;84.05;101423.44;5094122;28;20387;-81
2022/07/01 00:33:22;;;;;;;3.77;2.63;;;;;;;13.42;84.72;101433.88;5095163;28;20469;-82
2022/07/01 00:35:48;;;;;;;2.97;2.53;;;;;;;13.38;83.73;101426.94;5094741;28;20476;-81
2022/07/01 00:38:13;;;;;;;3.50;2.80;;;;;;;13.37;84.40;101406.97;5094180;28;20081;-81
2022/07/01 00:40:38;;;;;;;3.40;2.60;;;;;;;13.36;83.82;101413.94;5094370;28;20459;-81
2022/07/01 00:43:04;;;;;;;3.93;2.83;;;;;;;13.36;84.15;101419.16;5094063;28;20028;-81
2022/07/01 00:45:30;;;;;;;5.10;3.20;;;;;;;13.33;85.00;101413.97;5094777;28;20035;-82
2022/07/01 00:47:55;;;;;;;4.43;3.20;;;;;;;13.34;84.65;101418.31;5093060;28;20469;-81
2022/07/01 00:50:21;;;;;;;6.53;3.83;;;;;;;13.33;87.23;101411.38;5092978;28;20031;-82
2022/07/01 00:52:46;;;;;;;8.80;5.10;;;;;;;13.31;86.17;101412.31;5093419;28;20050;-81
2022/07/01 00:55:14;;;;;;;7.40;4.60;;;;;;;13.28;87.59;101415.81;5094650;28;20031;-81
2022/07/01 00:57:40;;;;;;;6.68;4.05;;;;;;;13.25;88.03;101416.72;5093288;28;20480;-81
2022/07/01 01:00:12;;;;;;;6.13;3.85;;;;;;;13.27;85.87;101417.56;5094582;28;20069;-81
2022/07/01 01:02:37;;;;;;;8.75;4.55;;;;;;;13.26;88.25;101415.84;5094080;28;20077;-81
2022/07/01 01:05:09;;;;;;;7.40;4.23;;;;;;;13.28;85.88;101411.47;5093717;28;20052;-81
2022/07/01 01:07:35;;;;;;;7.22;4.35;;;;;;;13.30;87.43;101424.47;5094144;28;20536;-81
2022/07/01 01:10:01;;;;;;;5.88;3.95;;;;;;;13.29;86.94;101427.94;5093842;28;20483;-82
2022/07/01 01:12:28;;;;;;;8.85;4.57;;;;;;;13.28;88.90;101441.91;5093750;28;20044;-81
2022/07/01 01:14:53;;;;;;;9.38;5.30;;;;;;;13.26;87.41;101446.28;5093785;28;20020;-81
2022/07/01 01:17:20;;;;;;;8.30;4.50;;;;;;;13.22;87.25;101447.19;5092940;28;20034;-81
2022/07/01 01:19:46;;;;;;;7.45;4.70;;;;;;;13.23;89.01;101448.91;5092827;28;20077;-81
2022/07/01 01:22:14;;;;;;;8.33;4.57;;;;;;;13.24;88.50;101458.47;5093533;28;20024;-82
2022/07/01 01:24:41;;;;;;;7.72;4.57;;;;;;;13.22;89.35;101453.28;5091543;28;20039;-81
2022/07/01 01:27:07;;;;;;;5.68;3.70;;;;;;;13.20;87.39;101465.47;5092805;28;20138;-81
2022/07/01 01:29:34;;;;;;;8.50;4.63;;;;;;;13.20;87.47;101467.22;5094272;28;20115;-81
2022/07/01 01:32:00;;;;;;;11.55;6.03;;;;;;;13.25;87.79;101473.22;5093610;28;20043;-81
2022/07/01 01:34:25;;;;;;;10.30;5.50;;;;;;;13.24;89.49;101466.28;5093321;28;20024;-81
2022/07/01 01:36:51;;;;;;;8.30;5.00;;;;;;;13.21;87.83;101477.63;5093726;28;20031;-81
2022/07/01 01:39:16;;;;;;;7.57;4.40;;;;;;;13.20;87.67;101462.00;5091891;28;20032;-81
2022/07/01 01:41:43;;;;;;;5.13;3.70;;;;;;;13.21;87.36;101464.59;5093029;28;20047;-82
2022/07/01 01:44:08;;;;;;;5.47;3.70;;;;;;;13.23;87.25;101461.94;5093866;28;20388;-81
2022/07/01 01:46:34;;;;;;;8.80;4.70;;;;;;;13.21;88.74;101466.31;5092808;28;20060;-82
2022/07/01 01:49:00;;;;;;;9.80;5.20;;;;;;;13.19;88.39;101471.56;5092286;28;20059;-81
2022/07/01 01:51:26;;;;;;;7.90;4.35;;;;;;;13.19;88.64;101470.69;5093401;28;20020;-82
2022/07/01 01:53:52;;;;;;;7.93;4.53;;;;;;;13.19;88.92;101458.53;5092336;28;20023;-81
2022/07/01 01:56:17;;;;;;;9.37;4.70;;;;;;;13.18;89.44;101466.38;5093755;28;20055;-82
2022/07/01 01:58:45;;;;;;;7.07;4.20;;;;;;;13.17;87.66;101457.69;5093142;28;20073;-82
2022/07/01 02:01:12;;;;;;;5.25;3.53;;;;;;;13.22;87.45;101462.84;5092482;28;20120;-82
2022/07/01 02:03:39;;;;;;;4.18;3.15;;;;;;;13.26;87.68;101467.13;5092848;28;20024;-81
2022/07/01 02:06:06;;;;;;;5.65;3.63;;;;;;;13.24;87.89;101459.31;5093252;28;20476;-82
2022/07/01 02:08:31;;;;;;;7.32;4.03;;;;;;;13.24;87.87;101469.72;5092327;28;20036;-82
2022/07/01 02:10:57;;;;;;;5.80;3.57;;;;;;;13.27;86.78;101471.44;5092552;28;20031;-82
2022/07/01 02:13:23;;;;;;;8.32;4.75;;;;;;;13.29;86.96;101486.19;5091862;28;20031;-81
2022/07/01 02:15:49;;;;;;;6.33;3.90;;;;;;;13.32;86.43;101487.84;5090578;28;20028;-82
2022/07/01 02:18:15;;;;;;;5.82;3.88;;;;;;;13.38;87.30;101489.50;5091258;28;20016;-82
2022/07/01 02:20:41;;;;;;;6.37;3.60;;;;;;;13.38;87.85;101489.50;5092844;28;20031;-81
2022/07/01 02:23:06;;;;;;;5.40;3.50;;;;;;;13.39;86.80;101496.44;5090611;28;20035;-82
2022/07/01 02:25:32;;;;;;;6.67;3.93;;;;;;;13.38;87.77;101503.41;5091734;28;20492;-81
2022/07/01 02:27:58;;;;;;;6.10;3.50;;;;;;;13.37;87.90;101506.03;5091784;28;20052;-81
2022/07/01 02:30:23;;;;;;;6.57;4.30;;;;;;;13.35;87.80;101511.28;5078965;28;20024;-81
2022/07/01 02:32:49;;;;;;;7.20;4.30;;;;;;;13.32;88.43;101503.50;5077522;28;20497;-82
2022/07/01 02:35:14;;;;;;;8.37;4.50;;;;;;;13.30;88.20;101487.03;5092365;28;20520;-81
2022/07/01 02:37:39;;;;;;;10.57;5.97;;;;;;;13.28;89.34;101467.97;5091704;28;20443;-81
2022/07/01 02:40:05;;;;;;;8.90;4.83;;;;;;;13.23;88.10;101460.19;5092993;28;20024;-82
2022/07/01 02:42:34;;;;;;;12.23;5.73;;;;;;;13.26;89.63;101474.94;5092824;28;20024;-81
2022/07/01 02:45:00;;;;;;;10.70;5.82;;;;;;;13.23;88.79;101477.59;5090907;28;20765;-81
2022/07/01 02:47:36;;;;;;;7.60;4.70;;;;;;;13.22;88.97;101465.44;5092804;28;20054;-81
2022/07/01 02:50:03;;;;;;;8.18;4.50;;;;;;;13.25;87.86;101487.09;5090979;28;20435;-81
2022/07/01 02:52:28;;;;;;;6.85;4.20;;;;;;;13.28;88.46;101488.81;5093023;28;20024;-81
2022/07/01 02:54:54;;;;;;;9.23;5.03;;;;;;;13.28;90.00;101491.41;5092379;28;20024;-81
2022/07/01 02:57:20;;;;;;;9.70;5.10;;;;;;;13.26;87.89;101487.97;5091347;28;20056;-81
2022/07/01 02:59:45;;;;;;;7.90;4.70;;;;;;;13.29;87.45;101498.31;5092358;28;20028;-81
2022/07/01 03:02:10;;;;;;;5.40;3.67;;;;;;;13.33;87.74;101497.41;5092612;28;20024;-81
2022/07/01 03:04:39;;;;;;;7.60;4.50;;;;;;;13.33;87.53;101489.59;5091769;28;20440;-82
2022/07/01 03:07:04;;;;;;;9.38;5.15;;;;;;;13.32;87.16;101487.84;5092400;28;20494;-81
2022/07/01 03:09:29;;;;;;;8.33;4.73;;;;;;;13.32;88.42;101494.84;5092333;28;20031;-81
2022/07/01 03:11:54;;;;;;;8.07;4.50;;;;;;;13.28;87.74;101491.41;5090633;28;20025;-81
2022/07/01 03:14:20;;;;;;;6.27;4.10;;;;;;;13.29;87.52;101496.59;5092254;28;20472;-82
2022/07/01 03:16:47;;;;;;;5.47;3.70;;;;;;;13.29;88.37;101506.16;5091813;28;20040;-81
2022/07/01 03:19:12;;;;;;;;;;;;;;;13.29;88.27;101517.44;5092154;28;20080;-82
2022/07/01 03:21:37;;;;;;;20.00;10.57;;;;;;;13.20;89.28;101509.78;5093160;28;19959;-81
2022/07/01 03:24:03;;;;;;;19.20;9.83;;;;;;;13.17;90.37;101490.72;5096491;28;20020;-82
2022/07/01 03:26:28;;;;;;;14.53;8.00;;;;;;;13.18;88.52;101495.03;5095637;28;20476;-82
2022/07/01 03:28:54;;;;;;;15.00;7.10;;;;;;;13.17;88.90;101498.56;5095734;28;20103;-82
2022/07/01 03:31:19;;;;;;;17.03;8.43;;;;;;;13.21;89.85;101510.63;5096184;28;20059;-82
2022/07/01 03:33:44;;;;;;;13.87;7.27;;;;;;;13.20;89.55;101490.66;5094971;28;20028;-82
2022/07/01 03:36:09;;;;;;;14.20;7.40;;;;;;;13.19;88.70;101510.66;5095943;28;20027;-81
2022/07/01 03:38:35;;;;;;;11.10;5.97;;;;;;;13.20;88.41;101517.59;5095469;28;20047;-82
2022/07/01 03:41:00;;;;;;;10.53;5.80;;;;;;;13.22;87.73;101530.59;5095170;28;20044;-82
2022/07/01 03:43:26;;;;;;;10.60;5.83;;;;;;;13.26;88.35;101537.50;5094386;28;20043;-82
2022/07/01 03:45:51;;;;;;;13.23;6.47;;;;;;;13.28;89.45;101539.19;5095572;28;20038;-82
2022/07/01 03:48:16;;;;;;;10.37;5.53;;;;;;;13.27;88.47;101537.47;5095147;28;20032;-82
2022/07/01 03:50:42;;;;;;;14.60;7.40;;;;;;;13.26;89.90;101553.13;5095821;28;20030;-82
2022/07/01 03:55:51;;;;;;;14.60;7.35;;;;;;;13.21;89.52;101560.16;5094758;28;20082;-82
2022/07/01 03:58:16;;;;;;;14.07;7.20;;;;;;;13.19;88.88;101551.50;5096167;28;20028;-82
2022/07/01 04:00:41;;;;;;;12.73;6.70;;;;;;;13.17;89.17;101554.13;5094699;28;20539;-81
2022/07/01 04:03:07;;;;;;;14.70;7.47;;;;;;;13.19;89.48;101564.53;5095668;28;20024;-82
2022/07/01 04:05:35;;;;;;;19.20;10.17;;;;;;;13.14;89.82;101567.19;5095468;28;20024;-82
2022/07/01 04:08:02;;;;;;;15.25;7.90;;;;;;;13.14;88.84;101562.00;5094577;28;20387;-82
2022/07/01 04:10:31;;;;;;;14.52;7.63;;;;;;;13.17;88.35;101556.75;5095404;28;20020;-81
2022/07/01 04:12:56;;;;;;;13.68;7.07;;;;;;;13.18;89.04;101549.75;5094362;28;20034;-82
2022/07/01 04:15:21;;;;;;;10.60;5.93;;;;;;;13.19;88.85;101556.69;5094611;28;20387;-82
2022/07/01 04:17:47;;;;;;;13.43;6.80;;;;;;;13.20;89.54;101551.50;5094970;28;20073;-82
2022/07/01 04:20:12;;;;;;;14.63;7.20;;;;;;;13.15;89.80;101558.50;5095303;28;20026;-82
2022/07/01 04:22:37;;;;;;;14.73;7.90;;;;;;;13.10;90.03;101563.78;5094459;28;20016;-82
2022/07/01 04:25:04;;;;;;;15.23;7.73;;;;;;;13.07;89.33;101563.81;5095326;28;20024;-82
2022/07/01 04:27:30;;;;;;;16.67;9.00;;;;;;;13.03;89.35;101562.16;5094498;28;20098;-82
2022/07/01 04:29:56;;;;;;;15.68;7.95;;;;;;;13.03;89.16;101550.84;5093900;28;20527;-82
2022/07/01 04:32:22;;;;;;;16.50;8.87;;;;;;;13.01;89.35;101558.72;5094989;28;20051;-82
2022/07/01 04:34:47;;;;;;;14.20;7.33;;;;;;;13.03;88.31;101562.16;5093946;28;20402;-82
2022/07/01 04:37:12;;;;;;;18.20;9.33;;;;;;;13.05;89.43;101564.72;5093512;28;20059;-82
2022/07/01 04:39:38;;;;;;;18.80;10.20;;;;;;;12.98;90.40;101562.22;5094852;28;20028;-82
2022/07/01 04:42:03;;;;;;;18.07;9.63;;;;;;;12.97;89.00;101570.03;5094663;28;20024;-82
2022/07/01 04:44:31;;;;;;;18.60;10.17;;;;;;;12.97;89.99;101578.75;5094048;28;20111;-82
2022/07/01 04:46:57;;;;;;;18.38;10.10;;;;;;;13.01;89.93;101586.50;5094494;28;20380;-82
2022/07/01 04:49:22;;;;;;;14.93;7.77;;;;;;;13.04;89.84;101589.06;5094145;28;20027;-82
2022/07/01 04:51:48;;;;;;;14.77;7.73;;;;;;;13.06;89.82;101579.47;5093458;28;20043;-82
2022/07/01 04:54:13;;;;;;;12.87;7.00;;;;;;;13.11;87.89;101581.16;5094658;28;20028;-82
2022/07/01 04:56:39;;;;;;;14.83;7.20;;;;;;;13.17;89.11;101579.34;5093549;28;20084;-82
2022/07/01 04:59:04;;;;;;;11.70;6.30;;;;;;;13.18;88.32;101576.72;5093535;28;20174;-82
2022/07/01 05:01:30;;;;;;;10.97;5.90;;;;;;;13.22;88.69;101577.53;5094350;28;20028;-82
2022/07/01 05:03:58;;;;;;;12.57;6.50;;;;;;;13.22;87.86;101567.09;5093532;28;20101;-82
2022/07/01 05:06:24;;;;;;;8.07;5.10;;;;;;;13.27;88.02;101566.13;5094379;28;20064;-82
2022/07/01 05:08:49;;;;;;;12.77;6.27;;;;;;;13.29;88.31;101581.75;5093089;28;20111;-82
2022/07/01 05:11:15;;;;;;;12.63;5.97;;;;;;;13.29;89.03;101585.22;5093644;28;20456;-82
2022/07/01 05:13:40;;;;;;;11.53;6.00;;;;;;;13.31;89.38;101587.81;5093818;28;20031;-82
2022/07/01 05:16:08;;;;;;;11.27;5.70;;;;;;;13.34;88.58;101592.13;5085780;28;20024;-83
2022/07/01 05:24:01;;;;;;;7.35;4.50;;;;;;;13.51;87.65;101584.94;5073727;28;20515;-82
2022/07/01 05:26:26;;;;;;;10.73;5.30;;;;;;;13.52;88.23;101577.97;5088062;28;20072;-82
2022/07/01 05:28:53;;;;;;;9.07;4.80;;;;;;;13.54;88.89;101577.06;5093339;28;20042;-83
2022/07/01 05:31:18;;;;;;;10.60;5.80;;;;;;;13.52;88.70;101573.63;5093902;28;20445;-82
2022/07/01 05:33:44;;;;;;;10.27;5.20;;;;;;;13.57;88.64;101578.75;5092064;28;20024;-82
2022/07/01 05:36:10;;;;;;;8.23;4.60;;;;;;;13.57;87.78;101581.38;5093358;28;20032;-82
2022/07/01 05:38:35;;;;;;;6.85;3.92;;;;;;;13.62;88.46;101581.28;5092847;28;20028;-82
2022/07/01 05:41:00;;;;;;;7.57;4.20;;;;;;;13.64;88.64;101582.13;5093459;28;20031;-82
2022/07/01 05:43:26;;;;;;;11.37;5.83;;;;;;;13.56;88.00;101564.88;5093329;28;20028;-82
2022/07/01 05:45:51;;;;;;;8.77;4.73;;;;;;;13.55;88.16;101576.19;5091621;28;20430;-82
2022/07/01 05:48:16;;;;;;;8.23;4.80;;;;;;;13.56;88.38;101574.44;5093776;28;20024;-82
2022/07/01 05:50:43;;;;;;;8.33;4.60;;;;;;;13.55;88.35;101580.53;5093300;28;20024;-82
2022/07/01 05:53:08;;;;;;;10.93;5.70;;;;;;;13.52;88.00;101578.84;5092208;28;20047;-82
2022/07/01 05:55:34;;;;;;;11.73;6.37;;;;;;;13.51;88.15;101589.31;5093030;28;20043;-81
2022/07/01 05:58:01;;;;;;;11.07;5.97;;;;;;;13.50;87.42;101592.78;5093395;28;20051;-82
2022/07/01 06:00:26;;;;;;;10.40;5.38;;;;;;;13.54;88.60;101589.22;5092019;28;20032;-83
2022/07/01 06:02:52;;;;;;;9.77;5.63;;;;;;;13.62;88.71;101590.00;5092998;28;20349;-81
2022/07/01 06:05:17;;;;;;;9.77;5.47;;;;;;;13.72;88.74;101591.56;5093379;28;20016;-83
2022/07/01 06:07:43;;;;;;;9.90;5.40;;;;;;;13.95;88.79;101586.81;5091911;28;20365;-83
2022/07/01 06:10:10;;;;;;;7.57;4.87;;;;;;;14.34;87.82;101576.56;5093729;28;20085;-83
2022/07/01 06:12:35;;;;;;;8.98;5.38;;;;;;;15.16;86.45;101582.72;5093062;28;20031;-84
2022/07/01 06:15:01;;;;;;;9.03;5.57;;;;;;;15.90;85.99;101580.94;5091942;28;20468;-80
2022/07/01 06:17:26;;;;;;;6.83;4.73;;;;;;;16.51;84.60;101582.81;5092347;28;20081;-80
2022/07/01 06:19:53;;;;;;;11.37;6.27;;;;;;;16.81;79.92;101580.19;5092966;28;20124;-81
2022/07/01 06:22:20;;;;;;;;;;;;;;;16.68;79.89;101577.09;5092589;28;20070;-81
2022/07/01 06:24:46;;;;;;;10.93;5.75;;;;;;;16.45;79.85;101584.75;5092887;28;20366;-81
2022/07/01 06:27:11;;;;;;;8.07;4.80;;;;;;;16.17;80.65;101575.00;5092646;28;20051;-83
2022/07/01 06:29:37;;;;;;;8.43;5.10;;;;;;;15.96;81.08;101574.69;5091517;28;20035;-81
2022/07/01 06:32:04;;;;;;;6.33;4.27;;;;;;;15.90;81.49;101575.72;5092799;28;20048;-82
2022/07/01 06:34:29;;;;;;;7.20;4.45;;;;;;;15.95;81.33;101580.81;5092028;28;20035;-83
2022/07/01 06:36:55;;;;;;;6.23;4.07;;;;;;;16.12;81.02;101574.28;5091838;28;20435;-82
2022/07/01 06:39:21;;;;;;;5.68;4.00;;;;;;;16.25;80.84;101569.56;5092840;28;20028;-82
2022/07/01 06:41:46;;;;;;;8.13;5.20;;;;;;;16.32;76.83;101576.38;5092116;28;20028;-82
2022/07/01 06:44:11;;;;;;;12.77;6.37;;;;;;;16.37;79.33;101571.84;5092840;28;20024;-83
2022/07/01 06:46:36;;;;;;;7.93;5.20;;;;;;;16.62;79.21;101573.78;5092601;28;20032;-83
2022/07/01 06:49:02;;;;;;;7.90;5.13;;;;;;;16.90;78.97;101572.94;5091767;28;20051;-83
2022/07/01 06:51:27;;;;;;;7.83;4.90;;;;;;;17.16;78.75;101571.31;5092120;28;20460;-83
2022/07/01 06:53:53;;;;;;;6.10;4.40;;;;;;;17.52;78.33;101566.66;5092495;28;20028;-83
2022/07/01 06:56:18;;;;;;;7.50;4.40;;;;;;;17.82;77.38;101570.94;5091673;28;20032;-83
2022/07/01 06:58:44;;;;;;;5.80;4.10;;;;;;;18.14;76.09;101575.09;5093152;28;20099;-85
2022/07/01 07:01:10;;;;;;;7.07;4.50;;;;;;;18.30;75.60;101577.16;5096399;28;20042;-86
2022/07/01 07:03:36;;;;;;;8.70;4.80;;;;;;;18.43;74.51;101578.44;5095279;28;20762;-84
2022/07/01 07:06:03;;;;;;;10.57;5.30;;;;;;;18.56;69.33;101584.13;5096245;28;20070;-82
2022/07/01 07:08:32;;;;;;;7.45;5.18;;;;;;;18.47;72.22;101584.44;5096502;28;20099;-82
2022/07/01 07:10:59;;;;;;;9.43;5.43;;;;;;;18.46;72.65;101602.00;5092469;28;20108;-82
2022/07/01 07:13:25;;;;;;;7.30;4.70;;;;;;;18.51;71.96;101602.69;5090482;28;20143;-83
2022/07/01 07:15:51;;;;;;;6.73;4.70;;;;;;;18.64;68.52;101610.97;5096461;28;20107;-82
2022/07/01 07:18:16;;;;;;;8.87;5.17;;;;;;;18.72;71.72;101617.72;5095850;28;20468;-83
2022/07/01 07:20:42;;;;;;;5.30;4.10;;;;;;;18.75;71.04;101618.44;5095883;28;20034;-81
2022/07/01 07:23:07;;;;;;;4.27;3.50;;;;;;;18.50;71.75;101615.88;5096649;28;20103;-83
2022/07/01 07:25:33;;;;;;;5.80;3.60;;;;;;;18.31;73.30;101607.78;5095682;28;20031;-83
2022/07/01 07:27:58;;;;;;;6.13;3.70;;;;;;;18.28;72.90;101611.38;5096353;28;20280;-83
2022/07/01 07:30:23;;;;;;;4.23;3.30;;;;;;;18.42;72.91;101610.03;5096576;28;20020;-83
2022/07/01 07:32:49;;;;;;;3.83;3.30;;;;;;;18.50;71.91;101613.25;5095504;28;20099;-83
2022/07/01 07:35:15;;;;;;;4.53;3.20;;;;;;;18.52;71.76;101616.69;5096080;28;20464;-83
2022/07/01 07:37:40;;;;;;;6.03;3.60;;;;;;;18.50;69.91;101618.50;5095108;28;20032;-83
2022/07/01 07:40:09;;;;;;;4.03;2.90;;;;;;;18.45;71.70;101628.34;5094499;28;20053;-83
2022/07/01 07:42:39;;;;;;;5.00;3.10;;;;;;;18.46;71.36;101627.44;5095887;28;20062;-83
2022/07/01 07:45:08;;;;;;;6.43;3.28;;;;;;;18.37;69.61;101636.50;5095157;28;20030;-82
2022/07/01 07:47:34;;;;;;;3.97;2.92;;;;;;;18.30;70.76;101640.22;5094782;28;20716;-83
2022/07/01 07:50:00;;;;;;;4.18;2.70;;;;;;;18.26;71.17;101647.38;5094680;28;20393;-82
2022/07/01 07:52:25;;;;;;;3.50;2.50;;;;;;;18.25;71.16;101642.16;5091789;28;20027;-82
2022/07/01 07:54:50;;;;;;;3.30;2.23;;;;;;;18.26;70.89;101636.00;5092182;28;20028;-81
2022/07/01 07:57:16;;;;;;;3.03;2.50;;;;;;;18.39;69.19;101637.31;5094984;28;20463;-81
2022/07/01 07:59:41;;;;;;;3.13;2.53;;;;;;;18.53;71.21;101639.44;5094711;28;20070;-81
2022/07/01 08:02:06;;;;;;;2.53;2.33;;;;;;;18.67;70.58;101645.03;5095320;28;20468;-82
2022/07/01 08:04:32;;;;;;;2.40;2.20;;;;;;;18.79;65.07;101645.50;5095819;28;20024;-81
2022/07/01 08:06:58;;;;;;;4.03;2.60;;;;;;;18.79;69.33;101646.34;5094631;28;20391;-81
2022/07/01 08:09:24;;;;;;;3.85;2.33;;;;;;;18.85;68.55;101641.78;5094584;28;20099;-81
2022/07/01 08:11:49;;;;;;;3.90;2.20;;;;;;;18.87;67.78;101651.34;5095360;28;20388;-81
2022/07/01 08:14:15;;;;;;;2.10;1.90;;;;;;;19.00;69.09;101649.13;5094897;28;20024;-87
2022/07/01 08:16:40;;;;;;;2.90;1.80;;;;;;;18.95;66.84;101646.66;5092654;28;20161;-81
2022/07/01 08:19:05;;;;;;;2.13;1.73;;;;;;;18.96;65.72;101658.91;5090667;28;20051;-81
2022/07/01 08:21:31;;;;;;;1.87;1.67;;;;;;;18.95;61.88;101651.94;5094544;28;20021;-81
2022/07/01 08:23:56;;;;;;;1.57;1.47;;;;;;;18.95;66.38;101661.59;5095299;28;20032;-82
2022/07/01 08:26:21;;;;;;;2.63;1.60;;;;;;;19.10;66.12;101668.91;5095021;28;20032;-82
2022/07/01 08:28:47;;;;;;;3.30;1.73;;;;;;;19.05;63.84;101665.59;5093748;28;20040;-81
2022/07/01 08:31:13;;;;;;;1.37;1.27;;;;;;;19.18;64.95;101667.75;5095350;28;20020;-81
2022/07/01 08:33:41;;;;;;;1.35;1.27;;;;;;;19.41;62.20;101669.50;5094017;28;20114;-81
2022/07/01 08:36:07;;;;;;;1.85;1.58;;;;;;;19.52;59.18;101676.97;5093284;28;20030;-82
2022/07/01 08:38:32;;;;;;;;;;;;;;;19.58;62.32;101677.59;5095393;28;20027;-82
2022/07/01 08:40:58;;;;;;;1.43;1.30;;;;;;;19.63;61.89;101679.16;5094756;28;19912;-82
2022/07/01 08:43:23;;;;;;;1.30;1.20;;;;;;;19.70;63.84;101684.13;5094468;28;20327;-81
2022/07/01 08:45:51;;;;;;;1.10;1.10;;;;;;;19.68;61.61;101678.06;5093016;28;20070;-81
2022/07/01 08:48:19;;;;;;;1.52;1.10;;;;;;;19.80;60.66;101683.75;5094819;28;20055;-83
2022/07/01 08:50:44;;;;;;;1.77;1.10;;;;;;;19.92;61.54;101685.06;5094304;28;20365;-80
2022/07/01 08:53:13;;;;;;;1.40;1.03;;;;;;;20.02;61.30;101686.41;5092636;28;20036;-82
2022/07/01 08:58:25;;;;;;;1.17;1.08;;;;;;;20.10;59.50;101705.38;5094577;28;20527;-82
2022/07/01 09:00:51;;;;;;;2.83;1.48;;;;;;;20.07;59.20;101702.84;5094035;28;20028;-82
2022/07/01 09:03:21;;;;;;;1.17;1.17;;;;;;;20.08;59.18;101711.63;5093983;28;20020;-82
2022/07/01 09:05:51;;;;;;;1.67;1.27;;;;;;;20.06;59.00;101704.66;5094193;28;20528;-82
2022/07/01 09:08:18;;;;;;;1.05;1.05;;;;;;;20.09;60.66;101706.28;5092860;28;20103;-82
2022/07/01 09:10:44;;;;;;;1.17;1.17;;;;;;;20.05;60.08;101697.66;5093151;28;20028;-82
2022/07/01 09:13:12;;;;;;;1.63;1.53;;;;;;;20.03;56.13;101690.75;5094152;28;20028;-82
2022/07/01 09:15:39;;;;;;;1.60;1.50;;;;;;;20.13;58.74;101704.38;5093708;28;20769;-82
2022/07/01 09:18:11;;;;;;;1.23;1.20;;;;;;;20.10;59.86;101691.34;5093734;28;20024;-82
2022/07/01 09:20:38;;;;;;;1.38;1.17;;;;;;;20.12;59.92;101693.00;5094069;28;20432;-82
2022/07/01 09:23:10;;;;;;;1.60;0.90;;;;;;;20.27;60.54;101696.75;5093903;28;20020;-82
2022/07/01 09:25:43;;;;;;;1.70;0.93;;;;;;;20.48;59.55;101700.25;5093381;28;20103;-82
2022/07/01 09:28:15;;;;;;;0.88;0.88;;;;;;;20.64;60.32;101700.44;5092259;28;20101;-82
2022/07/01 09:30:45;;;;;;;1.98;1.42;;;;;;;20.74;57.77;101697.38;5092707;28;20039;-82
2022/07/01 09:33:14;;;;;;;1.48;1.10;;;;;;;20.78;58.29;101702.47;5093961;28;20081;-82
2022/07/01 09:35:40;;;;;;;0.85;0.85;;;;;;;20.80;57.86;101700.63;5092337;28;20529;-82
2022/07/01 09:38:07;;;;;;;1.77;0.93;;;;;;;20.89;57.15;101706.41;5093130;28;20028;-82
2022/07/01 09:40:52;;;;;;;1.15;1.15;;;;;;;20.97;55.09;101701.63;5093846;28;20480;-82
2022/07/01 09:43:25;;;;;;;2.05;1.23;;;;;;;20.95;56.34;101704.34;5093933;28;20065;-82
2022/07/01 09:45:58;;;;;;;2.92;1.48;;;;;;;20.88;53.27;101709.97;5092647;28;20070;-82
2022/07/01 09:48:42;;;;;;;1.30;1.20;;;;;;;20.78;51.30;101705.13;5091860;28;20023;-82
2022/07/01 09:51:12;;;;;;;1.10;1.10;;;;;;;20.77;49.31;101708.69;5093788;28;20028;-82
2022/07/01 09:53:38;;;;;;;0.93;0.90;;;;;;;20.80;54.63;101711.19;5092891;28;20047;-82
2022/07/01 09:56:03;;;;;;;0.85;0.85;;;;;;;20.98;54.48;101709.50;5093561;28;20055;-82
2022/07/01 09:58:32;;;;;;;1.27;1.10;;;;;;;21.12;53.07;101714.16;5093406;28;20032;-82
2022/07/01 10:00:57;;;;;;;1.33;1.10;;;;;;;21.28;56.01;101708.13;5092399;28;20085;-82
2022/07/01 10:03:22;;;;;;;1.17;0.87;;;;;;;21.46;55.94;101714.31;5092200;28;20035;-82
2022/07/01 10:05:56;;;;;;;1.20;1.10;;;;;;;21.55;54.34;101716.56;5092196;28;20055;-82
2022/07/01 10:08:48;;;;;;;1.73;1.30;;;;;;;21.53;54.66;101706.97;5092366;28;20020;-82
2022/07/01 10:11:37;;;;;;;1.85;1.20;;;;;;;21.59;52.04;101727.84;5093328;28;20028;-82
2022/07/01 10:14:04;;;;;;;1.83;1.13;;;;;;;21.71;55.29;101729.03;5091916;28;20032;-83
2022/07/01 10:16:31;;;;;;;1.30;1.13;;;;;;;21.76;53.55;101732.31;5092982;28;20472;-82
2022/07/01 10:18:57;;;;;;;2.33;1.13;;;;;;;21.74;51.03;101742.09;5093216;28;20463;-82
2022/07/01 10:21:30;;;;;;;2.30;1.20;;;;;;;21.69;51.93;101742.34;5092516;28;20103;-82
2022/07/01 10:24:15;;;;;;;1.83;1.20;;;;;;;21.79;52.11;101747.16;5092698;28;20320;-82
2022/07/01 10:26:41;;;;;;;1.42;1.00;;;;;;;21.79;48.95;101736.59;5091893;28;20358;-82
2022/07/01 10:29:33;;;;;;;2.10;1.00;;;;;;;21.58;53.13;101757.81;5092064;28;20054;-82
2022/07/01 10:32:11;;;;;;;2.00;1.15;;;;;;;21.49;51.42;101751.16;5087388;28;20036;-82
2022/07/01 10:34:41;;;;;;;1.75;0.90;;;;;;;21.50;52.15;101760.81;5091769;28;20122;-82
2022/07/01 10:37:10;;;;;;;0.70;0.60;;;;;;;21.49;54.23;101758.25;5091521;28;20468;-84
2022/07/01 10:39:53;;;;;;;1.38;0.75;;;;;;;21.40;53.58;101759.53;5092037;28;20039;-84
2022/07/01 10:42:20;;;;;;;1.25;0.90;;;;;;;21.28;52.18;101756.53;5091457;28;20032;-81
2022/07/01 10:45:04;;;;;;;2.40;1.08;;;;;;;21.48;52.84;101749.44;5092501;28;20065;-81
2022/07/01 10:47:29;;;;;;;0.85;0.80;;;;;;;21.53;52.27;101751.88;5091511;28;20131;-82
2022/07/01 10:49:57;;;;;;;1.53;0.70;;;;;;;21.44;49.78;101753.19;5091601;28;20120;-82
2022/07/01 10:52:23;;;;;;;0.40;0.40;;;;;;;21.29;49.73;101738.88;5092677;28;20032;-82
2022/07/01 10:54:56;;;;;;;0.73;0.70;;;;;;;21.42;51.55;101750.59;5092501;28;20031;-82
2022/07/01 10:57:25;;;;;;;1.35;0.70;;;;;;;21.77;51.05;101743.75;5092655;28;20464;-81
2022/07/01 10:59:53;;;;;;;0.60;0.60;;;;;;;21.96;51.17;101744.53;5090723;28;20442;-81
2022/07/01 11:02:28;;;;;;;1.45;0.75;;;;;;;22.12;52.22;101744.66;5090500;28;20028;-81
2022/07/01 11:05:02;;;;;;;0.82;0.80;;;;;;;22.35;52.94;101742.63;5091503;28;20025;-82
2022/07/01 11:07:31;;;;;;;1.55;1.00;;;;;;;22.51;50.46;101734.81;5091807;28;20105;-87
2022/07/01 11:09:58;;;;;;;1.77;0.80;;;;;;;22.74;51.96;101746.00;5086299;28;20028;-83
2022/07/01 11:12:23;;;;;;;0.90;0.90;;;;;;;;;;5092523;28;20032;-83
2022/07/01 11:14:50;;;;;;;1.45;0.80;;;;;;;22.43;50.28;101734.34;5083799;28;20028;-82
2022/07/01 11:17:16;;;;;;;0.57;0.57;;;;;;;22.60;50.94;101729.03;5091932;28;20028;-83
2022/07/01 11:19:52;;;;;;;1.38;0.70;;;;;;;22.85;49.46;101732.19;5091916;28;20538;-82
2022/07/01 11:22:19;;;;;;;0.63;0.60;;;;;;;22.93;49.52;101732.63;5092654;28;20032;-82
2022/07/01 11:24:44;;;;;;;1.48;0.80;;;;;;;22.98;45.83;101734.06;5091458;28;20908;-82
2022/07/01 11:27:10;;;;;;;1.70;0.90;;;;;;;23.06;48.04;101730.19;5091907;28;20144;-81
2022/07/01 11:29:35;;;;;;;0.50;0.50;;;;;;;23.25;50.26;101730.91;5092302;28;20024;-83
2022/07/01 11:32:01;;;;;;;1.30;0.40;;;;;;;23.49;47.95;101719.91;5082405;28;20031;-82
2022/07/01 11:34:30;;;;;;;0.53;0.50;;;;;;;23.49;50.33;101722.53;5094397;28;20035;-84